Terminal Aerodrome Forecast
Issued by NWS

Home | Current Version | Previous Version | Graphics & Text | Print | Product List | Glossary On
Versions: 1 2 3 4 5 6 7 8 9 10 11 12 13 14 15
000
FTUS43 KICT 251100
TAFSLN
TAF
KSLN 251120Z 2512/2612 19015G25KT P6SM SCT200
     FM251400 21022G32KT P6SM SCT250
     FM260000 19015KT P6SM SCT080 BKN150
     FM260300 19015KT P6SM BKN150=

USA.gov is the U.S. government's official web portal to all federal, state and local government web resources and services.